首页
METAR-TAF:

METAR-TAF

机场 :

印第安纳波利斯国际机场

印第安納波利斯, 印第安纳州, 美国

纬度: 39-43-30N, 经度: 086-16-55W, 海拔: 243米

当前天气观测

该预报发布于23分钟前的17:54 UTC
风速11节,风向南转南东
温度 22°C
湿度 94%
气压 1017 hPa
能見度: 12.9公里
阴天层高于3500英尺
小雨

METAR: KIND 151754Z 15011KT 8SM -RA OVC035 22/21 A3003 RMK AO2 RAB15 SLP163 P0000 60000 T02220206 10244 20222 50000

时间: 14:17 (18:17 UTC)

预报

该预报发布于57分钟前的17:20 UTC
预报有效从15日的 18点(UTC)到 16日的 24点(UTC)
风速12节,风向
能見度: 10公里
多云层高于4500英尺
阴天层高于7000英尺
附近有阵雨
短暂存在
从 15日的 21点(UTC)到 16日的 01点(UTC)
能見度: 1.6公里
阴天层高于2500英尺
大阵雨
从 16日的 0200点(UTC)
风速6节,风向南转南东
能見度: 9.7公里
阴天层高于5000英尺, 积雨云.
阵雨, 附近有雷暴
从 16日的 0900点(UTC)
风速6节,风向
能見度: 9.7公里
阴天层高于1500英尺, 积雨云.
阵雨, 附近有雷暴

TAF: KIND 151720Z 1518/1624 17012KT P6SM VCSH BKN045 OVC070 TEMPO 1521/1601 1SM +SHRA OVC025 FM160200 16006KT 6SM SHRA VCTS OVC050CB FM160900 18006KT 6SM SHRA VCTS OVC015CB

超过4000个机场的气象观测和天气预报(METAR&TAF报告)。

可查询的气象台以黄色和红色小点在地图上表示。

将鼠标移到小点上方,可查看气象台名称。

然后点击查看天气观测和预报。

如需切换地图:点击带黑十字的绿色按钮放大地图;点击带横线的绿色按钮缩小地图;或者点击绿色箭头查看邻近地区的地图。


METAR-TAF: